Time;durP1;ratioP1;P1;durP2;ratioP2;P2;SDS_P1;SDS_P2;PMS_P1;PMS_P2;Temp;Humidity;BMP_temperature;BMP_pressure;BME280_temperature;BME280_humidity;BME280_pressure;Samples;Min_cycle;Max_cycle;Signal;HPM_P1;HPM_P2
2023/07/26 00:00:50;;;;;;;1.10;1.00;;;22.10;50.50;;;;;;5019850;28;20793;-67
2023/07/26 00:03:18;;;;;;;0.90;0.77;;;22.10;50.50;;;;;;5038346;28;20464;-67
2023/07/26 00:05:47;;;;;;;0.93;0.80;;;22.10;51.70;;;;;;5039363;28;20455;-67
2023/07/26 00:08:16;;;;;;;1.20;0.80;;;22.10;50.50;;;;;;5033278;28;20505;-67
2023/07/26 00:10:46;;;;;;;1.00;0.80;;;22.10;50.50;;;;;;5025145;28;20453;-66
2023/07/26 00:13:17;;;;;;;0.97;0.87;;;22.10;50.50;;;;;;5033381;28;20483;-67
2023/07/26 00:15:47;;;;;;;1.60;1.10;;;22.10;50.50;;;;;;5023456;28;20428;-66
2023/07/26 00:18:15;;;;;;;1.00;0.73;;;22.10;50.50;;;;;;5021911;28;20878;-66
2023/07/26 00:20:44;;;;;;;1.20;1.00;;;22.10;50.50;;;;;;5024819;28;20444;-66
2023/07/26 00:23:12;;;;;;;1.13;1.03;;;22.10;50.50;;;;;;5020372;28;20991;-67
2023/07/26 00:25:40;;;;;;;1.00;0.87;;;22.10;50.50;;;;;;5037943;28;20448;-66
2023/07/26 00:28:10;;;;;;;1.67;1.03;;;22.10;50.50;;;;;;5037381;28;20522;-67
2023/07/26 00:30:39;;;;;;;1.20;1.10;;;22.00;50.40;;;;;;5037854;28;20437;-67
2023/07/26 00:33:08;;;;;;;1.43;0.90;;;22.00;50.50;;;;;;5036201;28;20475;-66
2023/07/26 00:35:42;;;;;;;1.20;1.07;;;22.00;50.50;;;;;;5025594;28;20515;-67
2023/07/26 00:38:10;;;;;;;1.50;1.37;;;22.10;50.60;;;;;;5039230;28;20466;-67
2023/07/26 00:40:39;;;;;;;0.87;0.87;;;22.00;50.50;;;;;;5038713;28;20810;-67
2023/07/26 00:43:08;;;;;;;1.43;0.97;;;22.00;50.40;;;;;;5040891;28;21043;-67
2023/07/26 00:45:39;;;;;;;1.10;1.00;;;22.00;50.50;;;;;;5021733;28;21020;-67
2023/07/26 00:48:11;;;;;;;1.00;0.90;;;22.00;50.50;;;;;;5038117;28;20903;-67
2023/07/26 00:50:41;;;;;;;0.70;0.60;;;22.00;50.40;;;;;;5038124;28;20429;-66
2023/07/26 00:53:09;;;;;;;1.10;0.87;;;22.00;50.40;;;;;;5017535;28;20472;-67
2023/07/26 00:55:38;;;;;;;1.10;0.80;;;22.00;50.40;;;;;;5024241;28;20449;-66
2023/07/26 00:58:08;;;;;;;0.83;0.70;;;22.00;51.70;;;;;;5026583;28;20465;-67
2023/07/26 01:00:39;;;;;;;0.93;0.70;;;22.00;50.50;;;;;;5023654;28;20979;-66
2023/07/26 01:03:09;;;;;;;0.90;0.60;;;22.00;50.50;;;;;;5022766;28;20562;-66
2023/07/26 01:05:44;;;;;;;0.97;0.83;;;22.00;50.50;;;;;;5022507;28;20864;-67
2023/07/26 01:08:26;;;;;;;1.30;1.00;;;22.00;50.50;;;;;;5023717;28;20460;-67
2023/07/26 01:10:58;;;;;;;1.03;0.73;;;22.00;50.50;;;;;;5024519;28;20541;-67
2023/07/26 01:13:35;;;;;;;1.60;1.00;;;22.00;50.50;;;;;;5020551;28;20486;-66
2023/07/26 01:16:04;;;;;;;1.33;1.10;;;22.00;50.50;;;;;;5021827;28;20817;-67
2023/07/26 01:18:35;;;;;;;1.33;1.00;;;22.00;50.50;;;;;;5042824;28;20480;-66
2023/07/26 01:21:04;;;;;;;0.83;0.73;;;21.90;50.40;;;;;;5018369;28;20957;-67
2023/07/26 01:23:35;;;;;;;1.23;0.87;;;22.00;50.50;;;;;;5034280;28;20495;-67
2023/07/26 01:26:03;;;;;;;0.70;0.63;;;21.90;50.40;;;;;;5052135;28;20444;-67
2023/07/26 01:28:32;;;;;;;0.87;0.67;;;21.90;50.40;;;;;;5025924;28;21078;-66
2023/07/26 01:31:02;;;;;;;1.47;0.93;;;21.90;50.40;;;;;;5026668;28;20431;-67
2023/07/26 01:33:35;;;;;;;0.90;0.80;;;21.90;50.50;;;;;;5042702;28;20512;-67
2023/07/26 01:36:04;;;;;;;1.00;0.90;;;21.90;50.50;;;;;;5014936;28;20428;-67
2023/07/26 01:38:33;;;;;;;2.03;1.63;;;21.90;50.40;;;;;;5029248;28;20466;-67
2023/07/26 01:41:03;;;;;;;0.90;0.70;;;21.90;50.50;;;;;;5041867;28;20445;-66
2023/07/26 01:43:32;;;;;;;0.97;0.80;;;21.90;50.50;;;;;;5031227;28;20464;-66
2023/07/26 01:46:01;;;;;;;0.90;0.87;;;21.90;50.50;;;;;;5046597;28;20447;-67
2023/07/26 01:48:29;;;;;;;1.00;0.80;;;21.90;50.60;;;;;;5021979;28;20498;-66
2023/07/26 01:50:58;;;;;;;1.10;0.90;;;21.90;50.40;;;;;;5037599;28;20440;-67
2023/07/26 01:53:26;;;;;;;1.00;0.77;;;21.90;50.50;;;;;;5026751;28;20472;-66
2023/07/26 01:55:55;;;;;;;1.13;0.83;;;21.90;50.50;;;;;;5045637;28;20466;-67
2023/07/26 01:58:25;;;;;;;1.30;0.87;;;21.90;50.40;;;;;;5024725;28;20568;-66
2023/07/26 02:00:53;;;;;;;1.10;1.00;;;21.90;50.50;;;;;;5028914;28;20528;-66
2023/07/26 02:03:23;;;;;;;1.20;1.07;;;21.90;50.40;;;;;;5022247;28;20477;-67
2023/07/26 02:05:51;;;;;;;1.00;0.90;;;21.90;50.50;;;;;;5022876;28;20444;-67
2023/07/26 02:08:20;;;;;;;1.10;1.00;;;21.90;50.50;;;;;;5023312;28;21184;-66
2023/07/26 02:10:48;;;;;;;1.37;1.03;;;21.90;50.40;;;;;;5026246;28;20471;-67
2023/07/26 02:13:17;;;;;;;1.13;0.97;;;21.90;51.60;;;;;;5043910;28;20533;-67
2023/07/26 02:15:47;;;;;;;0.80;0.73;;;21.80;50.40;;;;;;5021023;28;20522;-66
2023/07/26 02:18:16;;;;;;;1.43;1.00;;;21.80;50.40;;;;;;5027057;28;20766;-66
2023/07/26 02:20:44;;;;;;;0.80;0.67;;;21.80;50.30;;;;;;5020927;28;20970;-67
2023/07/26 02:23:13;;;;;;;0.80;0.80;;;21.80;50.30;;;;;;5025083;28;20467;-66
2023/07/26 02:25:41;;;;;;;1.83;1.10;;;21.80;50.40;;;;;;5029253;28;20470;-67
2023/07/26 02:28:10;;;;;;;1.20;0.80;;;21.80;50.40;;;;;;5027406;28;20468;-67
2023/07/26 02:30:38;;;;;;;1.07;0.80;;;21.80;50.30;;;;;;5044456;28;20951;-66
2023/07/26 02:33:09;;;;;;;1.00;0.70;;;21.80;50.40;;;;;;5027078;28;20474;-66
2023/07/26 02:35:37;;;;;;;1.33;1.10;;;21.80;50.40;;;;;;5027742;28;20890;-67
2023/07/26 02:38:05;;;;;;;1.10;1.00;;;21.80;50.40;;;;;;5038047;28;20525;-67
2023/07/26 02:40:34;;;;;;;2.63;0.77;;;21.80;50.50;;;;;;5028196;28;20512;-66
2023/07/26 02:43:03;;;;;;;1.50;0.90;;;21.80;50.30;;;;;;5025114;28;20460;-66
2023/07/26 02:45:34;;;;;;;1.23;1.00;;;21.80;50.30;;;;;;5031607;28;20455;-67
2023/07/26 02:48:05;;;;;;;1.60;0.90;;;21.80;50.30;;;;;;5020296;28;20503;-66
2023/07/26 02:50:35;;;;;;;1.10;0.87;;;21.80;50.40;;;;;;5029619;28;20801;-66
2023/07/26 02:53:04;;;;;;;1.50;1.00;;;21.80;50.20;;;;;;5045068;28;20468;-67
2023/07/26 02:55:33;;;;;;;0.90;0.70;;;21.80;50.30;;;;;;5052331;28;20472;-67
2023/07/26 02:58:01;;;;;;;1.23;1.13;;;21.70;50.20;;;;;;5038986;28;20979;-66
2023/07/26 03:00:30;;;;;;;1.40;1.07;;;21.70;50.20;;;;;;5038333;28;20444;-66
2023/07/26 03:02:58;;;;;;;1.30;0.90;;;21.70;50.20;;;;;;5025753;28;20520;-67
2023/07/26 03:05:27;;;;;;;1.00;0.90;;;21.70;50.00;;;;;;5048460;28;20851;-67
2023/07/26 03:07:58;;;;;;;1.43;1.00;;;21.70;50.20;;;;;;5042965;28;20459;-67
2023/07/26 03:10:26;;;;;;;0.83;0.70;;;21.70;50.20;;;;;;5029352;28;20450;-66
2023/07/26 03:12:56;;;;;;;1.63;1.07;;;21.70;50.20;;;;;;5023373;28;20894;-67
2023/07/26 03:15:24;;;;;;;1.17;0.70;;;21.70;50.20;;;;;;5030649;28;20857;-66
2023/07/26 03:17:52;;;;;;;1.10;1.00;;;21.70;50.30;;;;;;5038733;28;20463;-66
2023/07/26 03:20:21;;;;;;;1.50;1.10;;;21.70;50.30;;;;;;5044798;28;20481;-67
2023/07/26 03:22:51;;;;;;;1.10;0.87;;;21.70;50.30;;;;;;5028016;28;20464;-67
2023/07/26 03:25:21;;;;;;;2.10;0.80;;;21.70;50.30;;;;;;5030593;28;20466;-66
2023/07/26 03:27:49;;;;;;;0.80;0.70;;;21.70;50.20;;;;;;5025921;28;20547;-67
2023/07/26 03:30:18;;;;;;;1.40;0.80;;;21.70;50.20;;;;;;5022188;28;20447;-67
2023/07/26 03:32:46;;;;;;;1.27;0.97;;;21.60;50.20;;;;;;5022799;28;20957;-66
2023/07/26 03:35:15;;;;;;;1.70;0.97;;;21.60;50.10;;;;;;5034305;28;20464;-66
2023/07/26 03:37:43;;;;;;;1.43;0.90;;;21.70;50.20;;;;;;5025125;28;20941;-67
2023/07/26 03:40:15;;;;;;;1.50;1.40;;;21.60;50.20;;;;;;5025292;28;20460;-67
2023/07/26 03:42:44;;;;;;;2.70;1.10;;;21.60;50.00;;;;;;5036027;28;20476;-66
2023/07/26 03:45:13;;;;;;;1.10;0.80;;;21.60;50.00;;;;;;5039503;28;21002;-67
2023/07/26 03:47:41;;;;;;;1.23;0.80;;;21.60;50.00;;;;;;5026698;28;20480;-67
2023/07/26 03:50:10;;;;;;;4.10;1.00;;;21.60;50.10;;;;;;5022287;28;20542;-67
2023/07/26 03:52:39;;;;;;;1.10;0.73;;;21.60;49.90;;;;;;5025944;28;20834;-66
2023/07/26 03:55:08;;;;;;;1.30;0.97;;;21.60;50.00;;;;;;5039770;28;20517;-67
2023/07/26 03:57:37;;;;;;;2.70;0.90;;;21.60;50.00;;;;;;5029306;28;20901;-67
2023/07/26 04:00:09;;;;;;;1.43;1.30;;;21.60;50.00;;;;;;5041078;28;20453;-67
2023/07/26 04:02:40;;;;;;;1.90;0.80;;;21.60;50.10;;;;;;5036159;28;20436;-66
2023/07/26 04:05:09;;;;;;;1.27;1.03;;;21.50;49.90;;;;;;5021087;28;20468;-67
2023/07/26 04:07:39;;;;;;;1.90;1.00;;;21.60;50.10;;;;;;5028146;28;20966;-67
2023/07/26 04:10:08;;;;;;;0.90;0.70;;;21.50;49.80;;;;;;5051174;28;20441;-67
2023/07/26 04:12:36;;;;;;;0.90;0.80;;;21.50;49.80;;;;;;5020049;28;20463;-66
2023/07/26 04:15:07;;;;;;;1.57;1.47;;;21.50;50.00;;;;;;5034436;28;20826;-67
2023/07/26 04:17:36;;;;;;;1.10;0.90;;;21.50;50.00;;;;;;5025283;28;20533;-67
2023/07/26 04:20:05;;;;;;;1.10;0.90;;;21.50;50.00;;;;;;5025208;28;20451;-67
2023/07/26 04:22:33;;;;;;;1.57;1.10;;;21.50;49.90;;;;;;5027266;28;20431;-67
2023/07/26 04:25:02;;;;;;;2.00;1.00;;;21.50;49.90;;;;;;5023554;28;20463;-67
2023/07/26 04:27:30;;;;;;;1.00;0.80;;;21.50;50.00;;;;;;5030212;28;20968;-66
2023/07/26 04:29:58;;;;;;;1.00;0.77;;;21.50;50.00;;;;;;5025930;28;20431;-67
2023/07/26 04:32:28;;;;;;;1.57;1.00;;;21.50;50.00;;;;;;5038408;28;20891;-67
2023/07/26 04:34:56;;;;;;;1.30;0.80;;;21.50;49.90;;;;;;5023139;28;20443;-66
2023/07/26 04:37:25;;;;;;;1.13;1.03;;;21.50;49.90;;;;;;5039552;28;20467;-66
2023/07/26 04:39:54;;;;;;;1.90;1.00;;;21.40;49.80;;;;;;5026095;28;20450;-67
2023/07/26 04:42:22;;;;;;;1.00;0.80;;;21.40;49.80;;;;;;5012503;28;20447;-67
2023/07/26 04:44:50;;;;;;;1.30;1.10;;;21.40;49.90;;;;;;5033124;28;20848;-67
2023/07/26 04:47:22;;;;;;;1.70;1.20;;;21.40;49.80;;;;;;5029807;28;20489;-67
2023/07/26 04:49:52;;;;;;;1.13;0.80;;;21.40;49.80;;;;;;5049820;28;20446;-67
2023/07/26 04:52:22;;;;;;;0.93;0.70;;;21.40;49.90;;;;;;5047646;28;20917;-67
2023/07/26 04:54:50;;;;;;;1.10;1.00;;;21.40;49.70;;;;;;5054414;28;20477;-66
2023/07/26 04:57:19;;;;;;;1.30;0.80;;;21.40;49.90;;;;;;5023691;28;20505;-67
2023/07/26 04:59:47;;;;;;;1.10;0.90;;;21.40;50.00;;;;;;5030857;28;20805;-67
2023/07/26 05:02:16;;;;;;;1.07;0.97;;;21.40;49.90;;;;;;5047927;28;20451;-67
2023/07/26 05:04:44;;;;;;;1.17;1.07;;;21.40;49.80;;;;;;5025098;28;20479;-67
2023/07/26 05:07:14;;;;;;;1.77;1.30;;;21.40;49.90;;;;;;5036679;28;20562;-67
2023/07/26 05:09:43;;;;;;;2.30;1.17;;;21.40;50.00;;;;;;5008966;28;20459;-67
2023/07/26 05:12:11;;;;;;;1.23;1.10;;;21.30;49.90;;;;;;5027133;28;20454;-66
2023/07/26 05:14:41;;;;;;;1.30;0.97;;;21.40;50.00;;;;;;5035373;28;20630;-67
2023/07/26 05:17:09;;;;;;;1.80;1.23;;;21.40;50.10;;;;;;5031835;28;20463;-67
2023/07/26 05:19:38;;;;;;;1.13;0.80;;;21.30;49.90;;;;;;5029773;28;20447;-67
2023/07/26 05:22:06;;;;;;;1.10;0.80;;;21.30;50.00;;;;;;5047849;28;20530;-67
2023/07/26 05:24:40;;;;;;;1.33;1.20;;;21.40;50.10;;;;;;5046338;28;20474;-67
2023/07/26 05:27:09;;;;;;;1.27;1.10;;;21.40;50.20;;;;;;5024657;28;20519;-67
2023/07/26 05:29:37;;;;;;;1.60;1.43;;;21.40;50.00;;;;;;5040185;28;20789;-67
2023/07/26 05:32:07;;;;;;;1.60;1.27;;;21.40;50.00;;;;;;5029104;28;20468;-67
2023/07/26 05:34:35;;;;;;;2.80;1.50;;;21.30;50.00;;;;;;5033175;28;20835;-67
2023/07/26 05:37:04;;;;;;;1.30;1.20;;;21.30;50.00;;;;;;5035109;28;21056;-67
2023/07/26 05:39:33;;;;;;;2.00;1.03;;;21.30;50.10;;;;;;5041601;28;20814;-67
2023/07/26 05:42:03;;;;;;;1.13;0.93;;;21.30;50.00;;;;;;5033459;28;20955;-67
2023/07/26 05:44:31;;;;;;;1.73;1.17;;;21.30;50.00;;;;;;5030656;28;20489;-67
2023/07/26 05:46:59;;;;;;;1.10;0.90;;;21.30;50.00;;;;;;5027723;28;20431;-67
2023/07/26 05:49:28;;;;;;;1.10;1.00;;;21.30;50.00;;;;;;5043633;28;20531;-67
2023/07/26 05:51:56;;;;;;;0.80;0.77;;;21.30;50.20;;;;;;5027851;28;20489;-67
2023/07/26 05:54:26;;;;;;;1.67;0.80;;;21.30;50.10;;;;;;5037370;28;20463;-67
2023/07/26 05:56:54;;;;;;;1.70;0.80;;;21.30;50.10;;;;;;5041531;28;20463;-67
2023/07/26 05:59:25;;;;;;;2.40;1.60;;;21.30;50.20;;;;;;5041007;28;20812;-67
2023/07/26 06:01:54;;;;;;;1.77;1.20;;;21.30;50.10;;;;;;5027053;28;20453;-67
2023/07/26 06:04:22;;;;;;;1.33;1.23;;;21.30;50.10;;;;;;5025868;28;20474;-67
2023/07/26 06:06:50;;;;;;;1.60;1.27;;;21.30;50.10;;;;;;5042236;28;20468;-66
2023/07/26 06:09:20;;;;;;;1.20;0.63;;;21.30;50.20;;;;;;5029406;28;20778;-67
2023/07/26 06:11:49;;;;;;;1.13;1.03;;;21.30;50.20;;;;;;5039321;28;20440;-66
2023/07/26 06:14:25;;;;;;;1.70;0.97;;;21.30;50.20;;;;;;5031533;28;21003;-67
2023/07/26 06:16:54;;;;;;;1.13;0.87;;;21.30;51.40;;;;;;5026397;28;20460;-67
2023/07/26 06:19:23;;;;;;;1.10;1.00;;;21.30;50.30;;;;;;5044873;28;20440;-66
2023/07/26 06:21:55;;;;;;;0.90;0.77;;;21.30;50.40;;;;;;5041968;28;20555;-67
2023/07/26 06:24:24;;;;;;;1.40;1.07;;;21.20;50.20;;;;;;5024954;28;20517;-66
2023/07/26 06:26:53;;;;;;;2.13;1.10;;;21.30;50.40;;;;;;5040938;28;20947;-67
2023/07/26 06:29:22;;;;;;;1.00;0.80;;;21.30;50.40;;;;;;5042556;28;20439;-67
2023/07/26 06:31:51;;;;;;;1.60;1.03;;;21.20;50.30;;;;;;5020124;28;20958;-67
2023/07/26 06:34:20;;;;;;;1.40;1.00;;;21.20;50.50;;;;;;5040548;28;20819;-66
2023/07/26 06:36:48;;;;;;;1.37;1.07;;;21.20;50.50;;;;;;5042010;28;21055;-67
2023/07/26 06:39:17;;;;;;;1.80;1.10;;;21.20;50.50;;;;;;5019442;28;20809;-66
2023/07/26 06:41:46;;;;;;;2.10;1.30;;;21.20;50.40;;;;;;5022738;28;20496;-66
2023/07/26 06:44:14;;;;;;;1.20;1.07;;;21.20;50.40;;;;;;5020540;28;20495;-66
2023/07/26 06:46:42;;;;;;;1.70;1.07;;;21.20;50.50;;;;;;5023982;28;20487;-66
2023/07/26 06:49:12;;;;;;;1.40;1.00;;;21.20;51.60;;;;;;5027349;28;20450;-66
2023/07/26 06:51:40;;;;;;;1.30;1.20;;;21.20;50.50;;;;;;5023494;28;20452;-67
2023/07/26 06:54:09;;;;;;;1.33;1.20;;;21.20;50.50;;;;;;5038622;28;20546;-66
2023/07/26 06:56:37;;;;;;;1.57;1.00;;;21.20;50.50;;;;;;5020908;28;20483;-67
2023/07/26 06:59:11;;;;;;;1.40;1.00;;;21.20;50.50;;;;;;5041226;28;20447;-67
2023/07/26 07:01:39;;;;;;;1.40;1.00;;;21.20;50.50;;;;;;5038803;28;20454;-67
2023/07/26 07:04:08;;;;;;;2.13;1.30;;;21.20;50.50;;;;;;5040379;28;20555;-66
2023/07/26 07:06:44;;;;;;;1.80;1.40;;;21.20;50.50;;;;;;5023073;28;20459;-67
2023/07/26 07:09:13;;;;;;;1.33;1.07;;;21.20;50.50;;;;;;5038422;28;20473;-66
2023/07/26 07:11:41;;;;;;;1.43;1.10;;;21.20;50.50;;;;;;5018689;28;20467;-67
2023/07/26 07:14:10;;;;;;;1.77;1.33;;;21.20;50.50;;;;;;5018991;28;20453;-67
2023/07/26 07:16:39;;;;;;;1.53;1.03;;;21.20;50.50;;;;;;5020826;28;20479;-67
2023/07/26 07:19:07;;;;;;;1.50;1.40;;;21.10;50.50;;;;;;5040931;28;20879;-67
2023/07/26 07:21:36;;;;;;;2.33;1.80;;;21.10;50.50;;;;;;5026524;28;20440;-66
2023/07/26 07:24:07;;;;;;;1.43;1.33;;;21.10;50.70;;;;;;5040051;28;20470;-67
2023/07/26 07:26:35;;;;;;;3.53;1.90;;;21.10;50.90;;;;;;5020244;28;20447;-67
2023/07/26 07:29:04;;;;;;;1.93;1.40;;;21.10;50.90;;;;;;5021554;28;20435;-66
2023/07/26 07:31:33;;;;;;;1.83;1.10;;;21.10;50.90;;;;;;5015585;28;20467;-66
2023/07/26 07:34:01;;;;;;;1.67;1.27;;;21.10;50.80;;;;;;5023754;28;21120;-67
2023/07/26 07:36:30;;;;;;;2.53;2.10;;;21.10;51.10;;;;;;5023463;28;20436;-67
2023/07/26 07:38:58;;;;;;;1.63;1.20;;;21.10;51.20;;;;;;5024862;28;20452;-67
2023/07/26 07:41:28;;;;;;;2.03;1.80;;;21.10;51.10;;;;;;5025698;28;20507;-67
2023/07/26 07:43:56;;;;;;;2.40;1.73;;;21.10;51.00;;;;;;5028808;28;20953;-67
2023/07/26 07:46:28;;;;;;;1.80;1.40;;;21.10;50.90;;;;;;5025231;28;20444;-67
2023/07/26 07:48:56;;;;;;;2.87;1.57;;;21.10;50.80;;;;;;5024311;28;20663;-67
2023/07/26 07:51:25;;;;;;;2.00;1.43;;;21.10;50.80;;;;;;5020951;28;20470;-67
2023/07/26 07:53:54;;;;;;;1.20;1.10;;;21.10;50.60;;;;;;5032141;28;20484;-67
2023/07/26 07:56:22;;;;;;;1.47;1.37;;;21.20;50.80;;;;;;5025363;28;20451;-67
2023/07/26 07:58:52;;;;;;;2.00;1.40;;;21.20;50.80;;;;;;5036568;28;21192;-67
2023/07/26 08:01:20;;;;;;;1.80;1.60;;;21.10;50.50;;;;;;5008359;28;20550;-67
2023/07/26 08:03:49;;;;;;;2.53;1.40;;;21.20;50.70;;;;;;5021269;28;20494;-66
2023/07/26 08:06:17;;;;;;;1.47;1.37;;;21.10;50.50;;;;;;5040286;28;20443;-67
2023/07/26 08:08:46;;;;;;;3.10;1.90;;;21.20;50.50;;;;;;5020798;28;20483;-67
2023/07/26 08:11:14;;;;;;;3.10;1.87;;;21.20;50.60;;;;;;5046654;28;20514;-66
2023/07/26 08:13:43;;;;;;;1.87;1.57;;;21.20;50.80;;;;;;5036854;28;20567;-67
2023/07/26 08:16:13;;;;;;;1.93;1.50;;;21.10;50.50;;;;;;5025435;28;20447;-67
2023/07/26 08:18:42;;;;;;;4.70;2.37;;;21.20;50.50;;;;;;5038970;28;20475;-67
2023/07/26 08:21:12;;;;;;;1.63;1.53;;;21.20;50.50;;;;;;5038283;28;20554;-67
2023/07/26 08:23:41;;;;;;;2.20;1.67;;;21.20;50.50;;;;;;5030949;28;20510;-67
2023/07/26 08:26:10;;;;;;;1.63;1.30;;;21.10;50.40;;;;;;5038817;28;21033;-67
2023/07/26 08:28:38;;;;;;;1.80;1.33;;;21.20;50.50;;;;;;5035578;28;20973;-67
2023/07/26 08:31:07;;;;;;;2.20;1.50;;;21.20;50.60;;;;;;5050618;28;20436;-67
2023/07/26 08:33:37;;;;;;;3.40;1.47;;;21.10;50.40;;;;;;5018084;28;20468;-66
2023/07/26 08:36:06;;;;;;;1.50;1.37;;;21.20;50.50;;;;;;5042267;28;20812;-70
2023/07/26 08:38:35;;;;;;;3.73;2.60;;;21.20;50.50;;;;;;5029400;28;20471;-68
2023/07/26 08:41:04;;;;;;;4.03;3.03;;;21.20;50.80;;;;;;5025346;28;20440;-66
2023/07/26 08:43:36;;;;;;;3.13;2.70;;;21.20;51.40;;;;;;5024631;28;20584;-66
2023/07/26 08:46:07;;;;;;;4.60;3.03;;;21.20;51.40;;;;;;5020823;28;20450;-67
2023/07/26 08:48:38;;;;;;;3.20;2.37;;;21.20;51.30;;;;;;5038837;28;20474;-66
2023/07/26 08:51:07;;;;;;;3.10;2.70;;;21.10;51.20;;;;;;5017632;28;20524;-67
2023/07/26 08:53:36;;;;;;;2.67;2.47;;;21.10;51.30;;;;;;5031012;28;21005;-67
2023/07/26 08:56:06;;;;;;;3.60;2.70;;;21.10;51.20;;;;;;5023678;28;20448;-67
2023/07/26 08:58:34;;;;;;;3.73;2.70;;;21.10;51.20;;;;;;5016266;28;20472;-67
2023/07/26 09:01:03;;;;;;;3.33;2.47;;;21.10;51.00;;;;;;5019170;28;20843;-66
2023/07/26 09:03:31;;;;;;;2.93;2.40;;;21.10;51.00;;;;;;5038394;28;20475;-67
2023/07/26 09:06:06;;;;;;;3.83;3.00;;;21.10;51.00;;;;;;5022039;28;20448;-67
2023/07/26 09:08:35;;;;;;;4.30;2.40;;;21.10;50.90;;;;;;5034938;28;20482;-67
2023/07/26 09:11:20;;;;;;;3.37;2.37;;;21.10;50.90;;;;;;5025319;28;20891;-67
2023/07/26 09:13:56;;;;;;;4.15;2.80;;;21.10;50.80;;;;;;5022088;28;20456;-66
2023/07/26 09:16:28;;;;;;;3.73;2.60;;;21.10;52.20;;;;;;5019251;28;20201;-67
2023/07/26 09:18:58;;;;;;;4.37;2.17;;;21.10;51.00;;;;;;5026560;28;20480;-67
2023/07/26 09:21:30;;;;;;;3.30;2.30;;;21.10;51.00;;;;;;5030082;28;20951;-67
2023/07/26 09:24:03;;;;;;;5.73;2.70;;;21.10;50.80;;;;;;5036946;28;20821;-67
2023/07/26 09:26:35;;;;;;;3.03;2.20;;;21.10;50.80;;;;;;5026504;28;20442;-67
2023/07/26 09:29:08;;;;;;;3.50;2.23;;;21.10;52.00;;;;;;5040435;28;20518;-67
2023/07/26 09:31:38;;;;;;;2.40;2.20;;;21.10;50.70;;;;;;5042817;28;20439;-67
2023/07/26 09:34:09;;;;;;;2.30;2.07;;;21.10;50.80;;;;;;5044767;28;20536;-67
2023/07/26 09:36:47;;;;;;;3.43;2.40;;;21.10;50.80;;;;;;5007322;28;20448;-67
2023/07/26 09:39:17;;;;;;;2.73;2.13;;;21.10;50.90;;;;;;5045464;28;20541;-67
2023/07/26 09:41:49;;;;;;;3.23;2.10;;;21.10;50.80;;;;;;5021960;28;20758;-67
2023/07/26 09:44:19;;;;;;;2.80;2.00;;;21.10;50.90;;;;;;5038357;28;20528;-67
2023/07/26 09:46:50;;;;;;;2.80;2.37;;;21.10;50.70;;;;;;5024807;28;20438;-67
2023/07/26 09:49:21;;;;;;;3.03;2.30;;;21.10;50.80;;;;;;5038034;28;20802;-67
2023/07/26 09:51:54;;;;;;;2.27;2.07;;;21.10;50.80;;;;;;5026063;28;20804;-67
2023/07/26 09:54:28;;;;;;;3.60;1.60;;;21.10;50.80;;;;;;5024428;28;20862;-67
2023/07/26 09:57:01;;;;;;;2.57;1.90;;;21.10;50.70;;;;;;5040932;28;20450;-67
2023/07/26 09:59:30;;;;;;;2.03;1.80;;;21.10;50.60;;;;;;5030480;28;20455;-67
2023/07/26 10:02:03;;;;;;;2.83;2.00;;;21.10;50.60;;;;;;5027556;28;20436;-67
2023/07/26 10:04:40;;;;;;;2.87;2.10;;;21.10;50.60;;;;;;5027216;28;20656;-67
2023/07/26 10:07:13;;;;;;;2.70;2.50;;;21.10;50.90;;;;;;5026546;28;20789;-67
2023/07/26 10:09:43;;;;;;;2.17;1.97;;;21.10;50.90;;;;;;5021326;28;20464;-67
2023/07/26 10:12:12;;;;;;;2.80;2.00;;;21.10;51.00;;;;;;5040430;28;20473;-67
2023/07/26 10:14:42;;;;;;;2.10;1.90;;;21.10;51.50;;;;;;5024600;28;20470;-67
2023/07/26 10:17:14;;;;;;;1.97;1.87;;;21.10;51.30;;;;;;5038581;28;20847;-67
2023/07/26 10:19:46;;;;;;;2.13;1.93;;;21.10;51.30;;;;;;5029394;28;20463;-67
2023/07/26 10:22:16;;;;;;;1.67;1.57;;;21.10;51.20;;;;;;5040924;28;20481;-67
2023/07/26 10:24:46;;;;;;;2.33;2.13;;;21.10;51.10;;;;;;5040399;28;20830;-67
2023/07/26 10:27:16;;;;;;;2.23;1.90;;;21.00;51.10;;;;;;5024132;28;20479;-67
2023/07/26 10:29:45;;;;;;;2.43;1.97;;;21.00;51.20;;;;;;5023677;28;20791;-66
2023/07/26 10:32:14;;;;;;;2.43;2.20;;;21.00;51.30;;;;;;5024912;28;20447;-66
2023/07/26 10:34:43;;;;;;;5.93;2.70;;;21.00;51.20;;;;;;5034737;28;20469;-66
2023/07/26 10:37:18;;;;;;;2.50;1.93;;;21.00;51.50;;;;;;5032708;28;20467;-66
2023/07/26 12:36:28;;;;;;;2.80;2.50;;;20.90;50.50;;;;;;5130726;27;20570;-74
2023/07/26 12:38:57;;;;;;;4.27;2.70;;;21.00;50.70;;;;;;5039493;28;20891;-72
2023/07/26 12:41:26;;;;;;;6.00;2.80;;;21.00;50.00;;;;;;5065439;28;20964;-73
2023/07/26 12:43:57;;;;;;;4.10;3.37;;;21.00;50.00;;;;;;5079561;28;20508;-72
2023/07/26 12:46:25;;;;;;;4.50;2.40;;;21.00;50.30;;;;;;5063067;28;20798;-72
2023/07/26 12:48:56;;;;;;;2.97;2.50;;;21.00;51.60;;;;;;5053827;28;20473;-72
2023/07/26 12:51:26;;;;;;;3.70;2.40;;;21.00;50.30;;;;;;5059915;28;21233;-71
2023/07/26 12:53:56;;;;;;;3.43;2.70;;;21.00;50.30;;;;;;5068494;28;20483;-72
2023/07/26 12:56:26;;;;;;;2.90;2.40;;;21.00;50.40;;;;;;5058885;28;20976;-72
2023/07/26 12:58:55;;;;;;;3.10;2.80;;;21.00;50.50;;;;;;5079530;28;20474;-72
2023/07/26 13:01:36;;;;;;;2.70;2.10;;;21.10;50.50;;;;;;5071446;28;20442;-72
2023/07/26 13:04:07;;;;;;;3.00;2.27;;;21.10;50.70;;;;;;5055624;28;20477;-72
2023/07/26 13:06:39;;;;;;;3.60;2.67;;;21.00;50.50;;;;;;5044705;28;20452;-72
2023/07/26 13:09:08;;;;;;;3.17;2.57;;;21.10;50.70;;;;;;5044362;28;20474;-72
2023/07/26 13:11:37;;;;;;;4.80;2.33;;;21.10;50.80;;;;;;5061343;28;21031;-72
2023/07/26 13:14:05;;;;;;;3.20;2.90;;;21.10;50.70;;;;;;5086886;28;20478;-72
2023/07/26 13:16:34;;;;;;;3.53;2.53;;;21.10;50.50;;;;;;5074173;28;20467;-73
2023/07/26 13:19:04;;;;;;;2.80;2.23;;;21.10;50.60;;;;;;5064616;28;20458;-72
2023/07/26 13:21:33;;;;;;;3.10;2.27;;;21.10;50.80;;;;;;5073544;28;20543;-73
2023/07/26 13:24:04;;;;;;;2.60;2.30;;;21.10;50.80;;;;;;5082311;28;20477;-72
2023/07/26 13:26:32;;;;;;;3.83;2.33;;;21.10;50.80;;;;;;5062143;28;20438;-71
2023/07/26 13:29:02;;;;;;;2.23;2.03;;;21.10;50.80;;;;;;5078643;28;20976;-72
2023/07/26 13:31:30;;;;;;;3.07;2.43;;;21.10;50.90;;;;;;5080222;28;20482;-71
2023/07/26 13:33:59;;;;;;;2.50;2.23;;;21.10;51.00;;;;;;5061726;28;20472;-72
2023/07/26 13:36:29;;;;;;;3.23;2.20;;;21.10;51.00;;;;;;5067032;28;20471;-73
2023/07/26 13:38:58;;;;;;;3.63;2.30;;;21.10;51.00;;;;;;5073964;28;20466;-73
2023/07/26 13:41:28;;;;;;;2.20;2.00;;;21.10;51.10;;;;;;5100728;28;20798;-73
2023/07/26 13:43:56;;;;;;;3.40;2.80;;;21.20;51.30;;;;;;5070314;28;21043;-75
2023/07/26 13:46:26;;;;;;;10.20;3.70;;;21.30;52.70;;;;;;5069105;28;20461;-73
2023/07/26 13:49:06;;;;;;;4.50;3.47;;;21.40;55.80;;;;;;5074988;28;20967;-72
2023/07/26 13:51:37;;;;;;;5.73;2.77;;;21.40;55.80;;;;;;5052340;28;20496;-73
2023/07/26 13:54:06;;;;;;;5.63;3.07;;;21.30;55.20;;;;;;5053304;28;20509;-73
2023/07/26 13:56:36;;;;;;;3.17;2.50;;;21.20;54.60;;;;;;5054100;28;20474;-72
2023/07/26 13:59:05;;;;;;;3.40;2.37;;;21.20;54.40;;;;;;5051297;28;20516;-73
2023/07/26 14:01:35;;;;;;;4.40;2.50;;;21.20;53.90;;;;;;5068936;28;20555;-73
2023/07/26 14:04:04;;;;;;;3.30;2.93;;;21.20;53.70;;;;;;5049962;28;20691;-73
2023/07/26 14:06:33;;;;;;;2.97;2.57;;;21.20;53.20;;;;;;5051558;28;20458;-73
2023/07/26 14:09:04;;;;;;;3.47;3.10;;;21.20;53.20;;;;;;5067674;28;20487;-72
2023/07/26 14:11:33;;;;;;;5.40;3.13;;;21.20;53.00;;;;;;5085541;28;20437;-73
2023/07/26 14:14:03;;;;;;;3.40;2.37;;;21.20;52.70;;;;;;5051415;28;20875;-73
2023/07/26 14:16:32;;;;;;;2.40;2.20;;;21.20;52.40;;;;;;5052056;28;20998;-72
2023/07/26 14:19:00;;;;;;;3.90;2.07;;;21.20;52.20;;;;;;5039103;28;20574;-72
2023/07/26 14:21:29;;;;;;;3.10;2.80;;;21.30;52.30;;;;;;5058511;28;20544;-72
2023/07/26 14:23:57;;;;;;;2.80;2.40;;;21.20;51.90;;;;;;5068596;28;20460;-72
2023/07/26 14:26:26;;;;;;;3.53;2.60;;;21.30;51.80;;;;;;5054020;28;20435;-74
2023/07/26 14:28:54;;;;;;;3.53;2.20;;;21.30;51.80;;;;;;5059224;28;20464;-73
2023/07/26 14:31:24;;;;;;;2.87;2.57;;;21.30;51.90;;;;;;5093316;28;20535;-73
2023/07/26 14:33:53;;;;;;;2.60;2.37;;;21.30;51.60;;;;;;5045534;28;21048;-68
2023/07/26 14:36:21;;;;;;;3.00;2.27;;;21.30;51.60;;;;;;5040417;28;20565;-69
2023/07/26 14:38:50;;;;;;;3.60;2.97;;;21.40;50.70;;;;;;5057118;28;20581;-69
2023/07/26 14:41:19;;;;;;;3.40;3.00;;;21.40;49.20;;;;;;5059529;28;20450;-66
2023/07/26 14:43:49;;;;;;;2.50;2.00;;;21.40;49.50;;;;;;5049288;28;20470;-69
2023/07/26 14:46:18;;;;;;;4.20;2.43;;;21.40;49.60;;;;;;5079029;28;20442;-68
2023/07/26 14:48:48;;;;;;;3.60;2.10;;;21.50;49.50;;;;;;5063673;28;20655;-66
2023/07/26 14:51:17;;;;;;;5.07;2.87;;;21.50;49.50;;;;;;5061457;28;20438;-66
2023/07/26 14:53:46;;;;;;;5.93;2.60;;;21.60;46.00;;;;;;5076912;28;20475;-66
2023/07/26 14:56:15;;;;;;;3.40;2.80;;;21.60;46.30;;;;;;5043717;28;20660;-68